Parsons, Tennessee
Current Conditions -  °F | °C
As of 8:55 AM on Monday 24 Nov 2014 (Local Time) from KPVE Reporting Station
Overcast Overcast  
Wind Chill: 42°   Ceiling: 2700
Heat Index: 48°   Visibility: 10mi
Dew Point: 39°   Wind: 18mph
Humidity: 71%   Direction: 250°WSW
Pressure: 29.77"   Gusts: NA
Location:  35.65°N, 88.13°W
Report Text: KPVE 241455Z AUTO 25016KT 10SM OVC027 09/04 A2977 RMK
Loading
Personal Weather Stations






























Interactive Weather Map New forecast layout! Learn more

10-Day Weather Forecast

Advertisements
Track Severe Weather on mobile